KPUJ

Paulding Northwest Atlanta Airport

Atlanta, Georgia, USA
METAR KPUJ 230455Z AUTO 00000KT 10SM CLR 09/04 A3023 RMK AO2
Observed Flight Rules
Oct-23 @ 04:55 UTC (22 minutes ago) Visual Flight Rules
Visibility Clouds
10 miles
  • Clear skies
Temperatures Readings
Current 9°C / 48°F
Dewpoint 4°C / 39°F
Humidity 71%
Altimeter 30.23" Hg
Pressure 1024 hPa
Elevation 393
METAR KPUJ 230455Z AUTO 00000KT 10SM CLR 09/04 A3023 RMK AO2
Observed Flight Rules
Oct-23 @ 04:55 UTC
(22 minutes ago)
VFR
Clouds
  • Clear skies
Temperature Dewpoint
9°C / 48°F 4°C / 39°F
Humidity Altimeter Pressure
71% 30.23" Hg 1024 hPa